Time;durP1;ratioP1;P1;durP2;ratioP2;P2;SDS_P1;SDS_P2;PMS_P1;PMS_P2;Temp;Humidity;BMP_temperature;BMP_pressure;BME280_temperature;BME280_humidity;BME280_pressure;Samples;Min_cycle;Max_cycle;Signal;HPM_P1;HPM_P2
2022/10/24 00:01:18;;;;;;;5.63;1.55;;;;;;;13.29;90.17;96968.09;5085312;28;20127;-59
2022/10/24 00:03:45;;;;;;;4.35;0.90;;;;;;;13.18;91.88;96974.66;5086119;28;20051;-58
2022/10/24 00:06:12;;;;;;;7.95;1.60;;;;;;;13.25;90.97;96964.31;5085891;28;20469;-59
2022/10/24 00:08:41;;;;;;;4.72;0.85;;;;;;;13.33;90.65;96962.91;5085276;28;20042;-59
2022/10/24 00:11:20;;;;;;;5.25;1.05;;;;;;;13.15;92.34;96959.72;5068637;28;20415;-57
2022/10/24 00:13:49;;;;;;;6.82;1.80;;;;;;;13.08;92.66;96960.03;5065153;28;20490;-58
2022/10/24 00:16:16;;;;;;;10.15;1.00;;;;;;;12.89;94.05;96959.81;5065754;28;20041;-59
2022/10/24 00:18:43;;;;;;;6.45;1.33;;;;;;;12.87;94.65;96965.53;5065502;28;20135;-57
2022/10/24 00:21:09;;;;;;;5.43;1.33;;;;;;;13.03;93.21;96962.78;5065108;28;20048;-58
2022/10/24 00:23:36;;;;;;;5.22;0.93;;;;;;;13.14;92.46;96964.38;5069197;28;20327;-57
2022/10/24 00:26:03;;;;;;;4.35;1.10;;;;;;;13.02;93.36;96963.88;5069600;28;20048;-58
2022/10/24 00:28:32;;;;;;;6.88;1.40;;;;;;;13.00;93.45;96966.84;5069072;28;20040;-57
2022/10/24 00:30:58;;;;;;;5.22;1.25;;;;;;;12.95;93.96;96966.06;5068278;28;20055;-58
2022/10/24 00:33:25;;;;;;;5.50;1.20;;;;;;;13.08;93.25;96973.63;5068929;28;20041;-58
2022/10/24 00:35:52;;;;;;;6.43;1.20;;;;;;;13.32;91.18;96978.41;5068824;28;20116;-58
2022/10/24 00:38:19;;;;;;;6.80;1.42;;;;;;;13.48;89.93;96976.44;5069086;28;20051;-58
2022/10/24 00:40:45;;;;;;;4.85;0.98;;;;;;;13.63;89.28;96978.25;5068132;28;20127;-57
2022/10/24 00:43:29;;;;;;;7.78;1.33;;;;;;;13.82;87.89;96974.06;5085462;28;20062;-57
2022/10/24 00:45:59;;;;;;;6.72;1.67;;;;;;;13.81;87.69;96973.25;5088854;28;20094;-57
2022/10/24 00:48:44;;;;;;;6.40;1.23;;;;;;;13.60;89.05;96970.66;5089060;28;20428;-59
2022/10/24 00:51:27;;;;;;;9.95;1.30;;;;;;;13.35;90.83;96974.31;5088645;28;20383;-59
2022/10/24 00:54:04;;;;;;;9.82;2.50;;;;;;;13.39;90.34;96981.63;5088657;28;20051;-59
2022/10/24 00:56:34;;;;;;;6.80;1.40;;;;;;;13.67;88.36;96969.56;5088271;28;20555;-59
2022/10/24 00:59:03;;;;;;;6.18;0.90;;;;;;;13.75;88.01;96966.22;5088770;28;20046;-59
2022/10/24 01:01:30;;;;;;;3.72;1.20;;;;;;;13.57;89.12;96968.53;5088456;28;20465;-59
2022/10/24 01:03:56;;;;;;;6.38;1.10;;;;;;;13.29;91.15;96970.81;5077073;28;20037;-59
2022/10/24 01:06:35;;;;;;;6.82;1.13;;;;;;;13.16;92.27;96974.13;5068351;28;20057;-58
2022/10/24 01:09:32;;;;;;;5.40;1.52;;;;;;;13.13;92.58;96976.31;5068129;28;20543;-59
2022/10/24 01:12:20;;;;;;;7.65;1.20;;;;;;;13.38;90.69;96974.56;5073998;28;20047;-58
2022/10/24 01:15:03;;;;;;;3.40;1.05;;;;;;;13.51;89.76;96964.19;5088218;28;20046;-58
2022/10/24 01:18:06;;;;;;;4.93;0.90;;;;;;;13.61;89.28;96968.75;5088425;28;20050;-58
2022/10/24 01:20:57;;;;;;;2.17;0.80;;;;;;;13.66;88.82;96974.16;5087717;28;20139;-57
2022/10/24 01:23:56;;;;;;;5.65;2.15;;;;;;;13.74;88.52;96978.19;5088804;28;20040;-58
2022/10/24 01:26:49;;;;;;;4.65;1.00;;;;;;;13.74;88.24;96979.00;5088047;28;20082;-57
2022/10/24 01:29:28;;;;;;;6.70;1.70;;;;;;;13.74;87.93;96975.47;5088147;28;20055;-58
2022/10/24 01:32:12;;;;;;;6.07;1.30;;;;;;;13.75;88.14;96971.69;5087221;28;20126;-58
2022/10/24 01:34:55;;;;;;;4.95;1.55;;;;;;;13.73;88.22;96971.13;5071070;28;20028;-58
2022/10/24 01:37:34;;;;;;;4.15;1.10;;;;;;;13.68;88.24;96972.00;5072872;28;20139;-58
2022/10/24 01:40:09;;;;;;;3.58;1.08;;;;;;;13.71;88.11;96971.41;5087497;28;20483;-58
2022/10/24 01:42:39;;;;;;;7.85;1.80;;;;;;;13.80;87.50;96974.34;5087685;28;20130;-58
2022/10/24 01:45:08;;;;;;;8.15;1.30;;;;;;;13.77;87.57;96964.84;5083613;28;20047;-58
2022/10/24 01:47:43;;;;;;;6.45;1.10;;;;;;;13.70;88.09;96974.41;5084296;28;20592;-58
2022/10/24 01:50:13;;;;;;;6.05;1.30;;;;;;;13.69;88.48;96978.22;5087314;28;20111;-59
2022/10/24 01:52:42;;;;;;;4.72;1.55;;;;;;;13.62;88.41;96971.22;5087385;28;20050;-59
2022/10/24 01:55:10;;;;;;;5.45;1.60;;;;;;;13.57;88.62;96968.53;5087368;28;20105;-58
2022/10/24 01:57:38;;;;;;;4.28;1.35;;;;;;;13.62;88.26;96970.38;5077620;28;20474;-60
2022/10/24 02:00:07;;;;;;;4.80;1.38;;;;;;;13.60;88.34;96967.16;5086933;28;20159;-58
2022/10/24 02:02:36;;;;;;;;;;;;;;;13.63;88.15;96974.72;5086398;28;20094;-58
2022/10/24 02:05:20;;;;;;;6.70;1.15;;;;;;;13.63;88.22;96974.72;5067489;28;20024;-58
2022/10/24 02:07:51;;;;;;;7.65;1.50;;;;;;;13.60;88.24;96973.38;5066845;28;20049;-58
2022/10/24 02:10:25;;;;;;;10.75;1.58;;;;;;;13.57;88.37;96981.31;5066902;28;20579;-56
2022/10/24 02:12:58;;;;;;;4.32;1.30;;;;;;;13.70;87.59;96991.56;5080127;28;20038;-58
2022/10/24 02:15:30;;;;;;;8.25;1.60;;;;;;;13.67;87.85;96975.78;5087832;28;20119;-58
2022/10/24 02:17:57;;;;;;;11.55;1.33;;;;;;;13.69;87.62;96973.63;5087575;28;20314;-57
2022/10/24 02:20:32;;;;;;;5.72;1.35;;;;;;;13.63;88.21;96970.09;5086996;28;20131;-57
2022/10/24 02:23:14;;;;;;;19.13;3.60;;;;;;;13.64;88.27;96949.16;5086929;28;20210;-57
2022/10/24 02:25:45;;;;;;;5.78;1.38;;;;;;;13.68;87.90;96955.66;5087182;28;20473;-58
2022/10/24 02:28:21;;;;;;;10.68;1.50;;;;;;;13.72;88.11;96950.47;5087582;28;20389;-59
2022/10/24 02:31:05;;;;;;;10.45;1.85;;;;;;;13.95;86.30;96953.56;5087135;28;20111;-59
2022/10/24 02:33:35;;;;;;;5.55;1.25;;;;;;;13.95;86.43;96951.66;5066889;28;20082;-59
2022/10/24 02:36:03;;;;;;;6.10;1.40;;;;;;;14.06;85.97;96949.66;5066997;28;20040;-58
2022/10/24 02:38:33;;;;;;;9.05;1.30;;;;;;;14.18;85.19;96952.00;5065572;28;20139;-57
2022/10/24 02:41:03;;;;;;;8.02;1.25;;;;;;;14.03;86.10;96947.50;5064426;28;20044;-58
2022/10/24 02:43:31;;;;;;;5.82;1.20;;;;;;;13.94;86.77;96941.06;5085378;28;20123;-59
2022/10/24 02:45:58;;;;;;;8.63;1.65;;;;;;;14.10;85.66;96945.28;5086185;28;20517;-58
2022/10/24 02:48:33;;;;;;;5.90;1.73;;;;;;;13.98;86.86;96951.09;5086742;28;20040;-58
2022/10/24 02:51:00;;;;;;;7.18;1.67;;;;;;;14.07;86.75;96945.03;5086195;28;20044;-58
2022/10/24 02:53:28;;;;;;;9.23;1.83;;;;;;;14.10;86.14;96942.56;5086360;28;20507;-59
2022/10/24 02:55:54;;;;;;;12.55;1.38;;;;;;;14.13;86.21;96941.16;5086776;28;20525;-59
2022/10/24 02:58:21;;;;;;;6.60;1.63;;;;;;;14.25;85.54;96941.59;5086339;28;20048;-58
2022/10/24 03:00:48;;;;;;;4.25;1.52;;;;;;;14.17;85.81;96932.16;5086301;28;20047;-57
2022/10/24 03:03:14;;;;;;;9.13;1.55;;;;;;;14.16;86.20;96924.25;5069643;28;20041;-57
2022/10/24 03:05:41;;;;;;;9.13;2.00;;;;;;;14.10;86.89;96925.41;5066073;28;20124;-57
2022/10/24 03:08:07;;;;;;;6.78;2.22;;;;;;;14.07;86.99;96934.94;5084574;28;20351;-58
2022/10/24 03:10:34;;;;;;;8.57;1.45;;;;;;;14.16;86.37;96925.06;5086212;28;20048;-58
2022/10/24 03:13:00;;;;;;;7.22;1.35;;;;;;;14.25;85.89;96933.44;5086839;28;20131;-58
2022/10/24 03:15:26;;;;;;;10.35;1.73;;;;;;;14.24;86.15;96961.78;5086325;28;20044;-59
2022/10/24 03:17:53;;;;;;;11.88;2.05;;;;;;;14.25;86.41;96949.78;5086358;28;20040;-59
2022/10/24 03:20:19;;;;;;;8.90;1.10;;;;;;;14.44;85.78;96959.94;5085837;28;20294;-59
2022/10/24 03:22:46;;;;;;;7.45;2.00;;;;;;;14.49;85.64;96956.34;5085948;28;20115;-58
2022/10/24 03:25:12;;;;;;;10.57;1.80;;;;;;;14.54;85.34;96969.91;5086080;28;20042;-59
2022/10/24 03:27:38;;;;;;;17.20;2.33;;;;;;;14.59;85.55;96956.25;5086091;28;20543;-58
2022/10/24 03:30:06;;;;;;;10.00;2.05;;;;;;;14.83;84.98;96967.19;5075851;28;20575;-57
2022/10/24 03:32:33;;;;;;;11.65;2.22;;;;;;;14.84;85.01;96954.38;5065691;28;20476;-59
2022/10/24 03:35:00;;;;;;;6.32;1.85;;;;;;;14.94;84.98;96956.19;5066106;28;20048;-59
2022/10/24 03:37:27;;;;;;;13.57;2.08;;;;;;;14.98;84.76;96943.59;5065581;28;20460;-59
2022/10/24 03:39:54;;;;;;;7.95;1.95;;;;;;;15.06;84.53;96929.31;5066093;28;20140;-59
2022/10/24 03:42:21;;;;;;;11.35;3.10;;;;;;;15.07;84.45;96921.91;5073766;28;20132;-59
2022/10/24 03:44:47;;;;;;;11.00;2.30;;;;;;;15.14;84.64;96933.28;5086281;28;20406;-59
2022/10/24 03:47:14;;;;;;;11.40;2.70;;;;;;;15.24;84.14;96931.53;5085683;28;20593;-58
2022/10/24 03:49:40;;;;;;;7.78;2.35;;;;;;;15.22;84.45;96937.28;5079693;28;20479;-59
2022/10/24 03:52:07;;;;;;;9.15;2.38;;;;;;;15.21;84.65;96947.38;5081964;28;20044;-58
2022/10/24 03:54:34;;;;;;;8.40;1.73;;;;;;;15.24;84.49;96932.34;5080018;28;20560;-57
2022/10/24 03:57:01;;;;;;;11.57;2.50;;;;;;;15.20;84.78;96940.31;5087757;28;20431;-58
2022/10/24 03:59:27;;;;;;;9.23;2.22;;;;;;;15.19;85.10;96946.84;5089680;28;20044;-57
2022/10/24 04:01:54;;;;;;;12.27;2.15;;;;;;;15.19;85.53;96959.69;5089156;28;20109;-58
2022/10/24 04:04:21;;;;;;;10.93;2.13;;;;;;;15.23;85.48;96968.09;5090028;28;20510;-58
2022/10/24 04:06:47;;;;;;;6.20;2.00;;;;;;;15.24;85.15;96969.72;5090155;28;20213;-58
2022/10/24 04:09:14;;;;;;;7.55;2.25;;;;;;;15.28;85.48;96971.56;5089697;28;20502;-58
2022/10/24 04:11:40;;;;;;;12.15;2.28;;;;;;;15.26;85.46;96973.75;5089277;28;20058;-57
2022/10/24 04:14:08;;;;;;;10.07;1.92;;;;;;;15.23;85.80;96968.09;5089892;28;20047;-58
2022/10/24 04:16:35;;;;;;;7.65;1.70;;;;;;;15.23;85.79;96971.66;5088881;28;20465;-57
2022/10/24 04:19:01;;;;;;;11.68;2.28;;;;;;;15.17;86.08;96970.88;5084371;28;20032;-59
2022/10/24 04:21:28;;;;;;;9.40;1.90;;;;;;;15.17;86.21;96973.63;5068452;28;20123;-58
2022/10/24 04:23:54;;;;;;;7.75;2.10;;;;;;;15.18;86.23;96967.06;5069161;28;20518;-59
2022/10/24 04:26:21;;;;;;;10.02;2.15;;;;;;;15.17;85.90;96967.34;5068489;28;20041;-58
2022/10/24 04:28:47;;;;;;;8.50;1.90;;;;;;;15.16;86.46;96966.56;5076703;28;20072;-57
2022/10/24 04:31:15;;;;;;;8.05;2.55;;;;;;;15.11;86.89;96954.88;5078036;28;20115;-59
2022/10/24 04:33:46;;;;;;;16.38;3.08;;;;;;;15.07;86.87;96955.47;5079528;28;20055;-59
2022/10/24 04:36:12;;;;;;;6.45;1.73;;;;;;;15.11;86.60;96941.25;5080800;28;20131;-58
2022/10/24 04:38:39;;;;;;;6.72;2.05;;;;;;;15.08;86.96;96940.72;5077892;28;20060;-58
2022/10/24 04:41:05;;;;;;;11.77;2.17;;;;;;;15.13;86.31;96939.03;5068733;28;20032;-57
2022/10/24 04:43:37;;;;;;;11.00;2.15;;;;;;;15.12;86.74;96934.69;5084692;28;20044;-56
2022/10/24 04:46:04;;;;;;;11.35;3.65;;;;;;;15.05;86.83;96946.78;5089180;28;20370;-57
2022/10/24 04:48:30;;;;;;;8.10;1.88;;;;;;;14.97;87.55;96947.44;5088594;28;20048;-58
2022/10/24 04:50:57;;;;;;;10.70;2.00;;;;;;;14.98;87.64;96948.22;5088654;28;20062;-57
2022/10/24 04:53:23;;;;;;;7.25;1.60;;;;;;;14.93;88.11;96955.34;5080599;28;20097;-57
2022/10/24 04:55:50;;;;;;;9.70;1.80;;;;;;;14.90;88.17;96939.59;5088708;28;20040;-60
2022/10/24 04:58:17;;;;;;;11.80;2.50;;;;;;;14.93;88.17;96951.84;5088933;28;20050;-59
2022/10/24 05:00:47;;;;;;;10.07;2.97;;;;;;;15.01;87.53;96953.09;5067927;28;20086;-58
2022/10/24 05:03:14;;;;;;;12.52;2.65;;;;;;;15.03;87.56;96956.31;5068625;28;20102;-57
2022/10/24 05:05:41;;;;;;;8.68;2.10;;;;;;;15.15;86.59;96967.63;5068150;28;20439;-57
2022/10/24 05:08:07;;;;;;;10.68;2.45;;;;;;;15.24;86.08;96970.53;5068158;28;20194;-59
2022/10/24 05:10:34;;;;;;;8.73;2.03;;;;;;;15.20;86.58;96962.13;5067583;28;20036;-59
2022/10/24 05:13:00;;;;;;;12.65;2.42;;;;;;;15.14;88.74;96960.56;5082502;28;20086;-58
2022/10/24 05:15:28;;;;;;;9.05;1.75;;;;;;;15.00;90.73;96957.72;5088067;28;20539;-58
2022/10/24 05:17:56;;;;;;;9.07;2.75;;;;;;;14.90;91.67;96971.50;5088093;28;20093;-59
2022/10/24 05:20:23;;;;;;;8.23;2.33;;;;;;;14.78;92.94;96985.53;5087887;28;20047;-58
2022/10/24 05:22:50;;;;;;;10.35;2.67;;;;;;;14.79;92.68;96989.88;5087908;28;20115;-57
2022/10/24 05:25:17;;;;;;;9.45;2.65;;;;;;;14.73;94.80;96961.00;5079227;28;20041;-57
2022/10/24 05:27:44;;;;;;;12.40;2.47;;;;;;;14.62;95.75;96985.66;5067133;28;20139;-57
2022/10/24 05:30:11;;;;;;;10.07;2.78;;;;;;;14.67;95.22;96971.16;5067979;28;20036;-58
2022/10/24 05:32:38;;;;;;;11.25;2.45;;;;;;;14.60;96.77;96951.63;5073099;28;20469;-58
2022/10/24 05:35:06;;;;;;;9.55;2.58;;;;;;;14.60;95.77;96987.03;5077802;28;20048;-59
2022/10/24 05:37:32;;;;;;;11.52;2.65;;;;;;;14.68;95.94;96983.69;5079225;28;20048;-58
2022/10/24 05:39:59;;;;;;;7.22;2.28;;;;;;;14.65;95.96;96974.19;5070611;28;20052;-58
2022/10/24 05:42:25;;;;;;;9.85;2.70;;;;;;;14.54;97.11;96983.53;5075757;28;20044;-59
2022/10/24 05:44:52;;;;;;;10.30;2.10;;;;;;;14.65;96.06;96965.19;5071355;28;20579;-57
2022/10/24 05:47:18;;;;;;;13.27;2.50;;;;;;;14.63;96.09;96965.47;5074114;28;20047;-59
2022/10/24 05:49:44;;;;;;;10.30;2.25;;;;;;;14.64;96.12;96974.47;5067508;28;20503;-59
2022/10/24 05:52:11;;;;;;;10.48;2.03;;;;;;;14.67;95.49;96985.59;5073277;28;20041;-58
2022/10/24 05:54:37;;;;;;;8.35;2.28;;;;;;;14.76;94.99;97025.84;5080990;28;20126;-58
2022/10/24 05:57:24;;;;;;;7.38;2.08;;;;;;;14.86;94.85;97050.31;5078151;28;20495;-58
2022/10/24 05:59:50;;;;;;;9.10;2.55;;;;;;;14.75;96.13;97030.50;5073336;28;20136;-57
2022/10/24 06:02:19;;;;;;;11.23;3.08;;;;;;;14.56;98.34;97028.47;5074909;28;20056;-58
2022/10/24 06:04:47;;;;;;;10.05;2.67;;;;;;;14.31;100.00;97035.75;5072806;28;20384;-57
2022/10/24 06:07:13;;;;;;;13.35;2.95;;;;;;;14.26;100.00;97030.34;5069498;28;20045;-59
2022/10/24 06:09:40;;;;;;;8.90;2.65;;;;;;;14.21;100.00;97032.28;5073666;28;20119;-57
2022/10/24 06:12:10;;;;;;;10.02;2.60;;;;;;;14.10;100.00;97007.06;5072629;28;20557;-56
2022/10/24 06:14:37;;;;;;;10.00;1.92;;;;;;;14.04;100.00;96984.50;5072976;28;20274;-59
2022/10/24 06:17:05;;;;;;;9.75;2.20;;;;;;;13.96;100.00;96996.03;5073179;28;20120;-58
2022/10/24 06:19:31;;;;;;;5.65;1.85;;;;;;;14.00;100.00;97011.50;5073939;28;20453;-57
2022/10/24 06:21:58;;;;;;;8.00;2.50;;;;;;;14.02;100.00;97022.94;5076936;28;20123;-58
2022/10/24 06:24:24;;;;;;;9.13;2.25;;;;;;;14.01;100.00;97028.66;5077132;28;20089;-57
2022/10/24 06:26:51;;;;;;;11.30;2.55;;;;;;;14.01;100.00;97026.72;5085008;28;20566;-56
2022/10/24 06:29:17;;;;;;;8.90;2.85;;;;;;;14.07;100.00;97032.16;5084631;28;20050;-57
2022/10/24 06:31:44;;;;;;;7.80;2.40;;;;;;;14.02;100.00;97030.25;5082608;28;20675;-56
2022/10/24 06:34:10;;;;;;;9.75;3.17;;;;;;;13.95;100.00;97033.31;5081365;28;20047;-57
2022/10/24 06:36:37;;;;;;;9.02;2.90;;;;;;;13.94;100.00;97033.59;5077862;28;20090;-57
2022/10/24 06:39:03;;;;;;;10.30;3.13;;;;;;;13.86;100.00;97049.41;5080125;28;20043;-60
2022/10/24 06:41:30;;;;;;;11.68;2.88;;;;;;;13.91;100.00;97063.00;5082992;28;20054;-58
2022/10/24 06:43:56;;;;;;;11.10;2.88;;;;;;;14.05;100.00;97074.06;5083434;28;20138;-58
2022/10/24 06:46:23;;;;;;;11.13;3.13;;;;;;;14.13;100.00;97059.06;5084722;28;20047;-59
2022/10/24 06:48:54;;;;;;;10.88;2.78;;;;;;;14.11;100.00;97061.22;5083703;28;20226;-55
2022/10/24 06:51:21;;;;;;;8.17;2.27;;;;;;;14.07;100.00;97084.66;5084187;28;20127;-58
2022/10/24 06:53:48;;;;;;;10.10;3.67;;;;;;;14.00;100.00;97084.16;5084217;28;20487;-56
2022/10/24 06:56:16;;;;;;;11.25;2.42;;;;;;;13.88;100.00;97065.47;5084683;28;20174;-58
2022/10/24 06:58:43;;;;;;;9.70;2.35;;;;;;;13.85;100.00;97036.91;5082588;28;20426;-59
2022/10/24 07:01:21;;;;;;;7.05;1.65;;;;;;;13.86;100.00;97035.78;5075415;28;20520;-58
2022/10/24 07:03:49;;;;;;;5.55;2.17;;;;;;;13.94;100.00;97061.63;5071173;28;20068;-60
2022/10/24 07:06:24;;;;;;;11.32;2.83;;;;;;;14.04;100.00;97082.50;5080135;28;20071;-58
2022/10/24 07:08:52;;;;;;;6.90;2.38;;;;;;;14.08;100.00;97077.31;5084401;28;20703;-58
2022/10/24 07:11:19;;;;;;;6.25;2.30;;;;;;;14.06;100.00;97083.03;5083154;28;20054;-59
2022/10/24 07:13:46;;;;;;;8.20;2.33;;;;;;;14.04;100.00;97071.63;5084591;28;20819;-59
2022/10/24 07:16:13;;;;;;;7.25;2.22;;;;;;;13.88;100.00;97087.22;5085450;28;20050;-59
2022/10/24 07:18:40;;;;;;;9.15;2.10;;;;;;;13.86;100.00;97078.53;5084007;28;20051;-59
2022/10/24 07:21:13;;;;;;;9.27;2.15;;;;;;;13.95;100.00;97070.59;5084008;28;20056;-58
2022/10/24 07:23:40;;;;;;;7.85;2.00;;;;;;;14.03;100.00;97070.00;5081438;28;20539;-59
2022/10/24 07:26:16;;;;;;;7.57;1.73;;;;;;;13.96;100.00;97059.41;5082560;28;20694;-59
2022/10/24 07:28:45;;;;;;;13.10;2.67;;;;;;;13.82;100.00;97029.28;5085113;28;20318;-59
2022/10/24 07:31:20;;;;;;;9.85;2.95;;;;;;;13.69;100.00;97022.59;5065637;28;20040;-59
2022/10/24 07:33:47;;;;;;;9.80;2.58;;;;;;;13.77;100.00;97027.44;5083427;28;20131;-59
2022/10/24 07:36:17;;;;;;;10.50;2.20;;;;;;;13.93;100.00;97045.56;5090072;28;20046;-59
2022/10/24 07:38:43;;;;;;;7.57;1.90;;;;;;;13.87;100.00;97045.63;5090011;28;20209;-59
2022/10/24 07:41:10;;;;;;;6.82;2.17;;;;;;;13.92;100.00;97052.91;5089157;28;20130;-59
2022/10/24 07:43:36;;;;;;;8.35;2.72;;;;;;;13.79;100.00;97052.44;5090848;28;20054;-59
2022/10/24 07:46:08;;;;;;;7.78;2.00;;;;;;;13.74;100.00;97057.09;5084389;28;20339;-59
2022/10/24 07:48:35;;;;;;;8.05;1.70;;;;;;;13.69;100.00;97065.28;5086657;28;20058;-59
2022/10/24 07:51:05;;;;;;;8.30;2.03;;;;;;;13.64;100.00;97069.66;5088933;28;20040;-58
2022/10/24 07:53:32;;;;;;;6.63;2.13;;;;;;;13.65;100.00;97063.13;5089730;28;20131;-59
2022/10/24 07:55:59;;;;;;;11.50;2.30;;;;;;;13.76;100.00;97057.63;5087046;28;20127;-59
2022/10/24 07:58:26;;;;;;;5.93;1.80;;;;;;;13.77;100.00;97060.09;5069339;28;20464;-59
2022/10/24 08:00:54;;;;;;;9.63;2.30;;;;;;;13.88;100.00;97058.13;5069033;28;20611;-59
2022/10/24 08:03:20;;;;;;;9.43;2.53;;;;;;;13.89;100.00;97075.25;5068933;28;20094;-59
2022/10/24 08:05:46;;;;;;;8.63;2.17;;;;;;;14.04;100.00;97090.66;5069565;28;20048;-57
2022/10/24 08:08:13;;;;;;;6.95;2.13;;;;;;;14.11;100.00;97084.94;5069490;28;20123;-58
2022/10/24 08:10:59;;;;;;;5.97;2.00;;;;;;;14.14;100.00;97078.91;5068952;28;20036;-59
2022/10/24 08:13:31;;;;;;;;;;;;;;;14.18;100.00;97071.81;5088899;28;20079;-58
2022/10/24 08:15:57;;;;;;;8.93;2.20;;;;;;;14.25;100.00;97060.59;5082687;28;19934;-58
2022/10/24 08:18:24;;;;;;;12.55;2.40;;;;;;;14.29;100.00;97048.03;5081389;28;20047;-57
2022/10/24 08:21:04;;;;;;;7.63;2.58;;;;;;;14.28;100.00;97055.41;5084705;28;20044;-59
2022/10/24 08:23:32;;;;;;;5.20;2.28;;;;;;;14.28;100.00;97054.59;5081475;28;20570;-59
2022/10/24 08:25:59;;;;;;;10.25;2.63;;;;;;;14.19;100.00;97057.09;5074014;28;20032;-57
2022/10/24 08:28:25;;;;;;;10.88;2.72;;;;;;;14.20;100.00;97049.75;5087200;28;20075;-59
2022/10/24 08:31:00;;;;;;;7.35;2.28;;;;;;;14.21;100.00;97054.09;5086418;28;20450;-59
2022/10/24 08:33:27;;;;;;;8.00;2.25;;;;;;;14.15;100.00;97061.47;5075563;28;20119;-59
2022/10/24 08:35:57;;;;;;;12.40;2.58;;;;;;;14.19;100.00;97062.53;5087351;28;20071;-59
2022/10/24 08:38:24;;;;;;;10.40;3.72;;;;;;;14.22;100.00;97053.81;5086600;28;20123;-58
2022/10/24 08:40:50;;;;;;;11.18;3.05;;;;;;;14.30;100.00;97049.69;5086564;28;20047;-58
2022/10/24 08:43:18;;;;;;;7.03;2.13;;;;;;;14.35;100.00;97052.34;5086243;28;20139;-59
2022/10/24 08:45:57;;;;;;;8.68;2.00;;;;;;;14.38;100.00;97053.69;5080631;28;20448;-57
2022/10/24 08:48:30;;;;;;;4.75;2.00;;;;;;;14.36;100.00;97051.25;5084257;28;20059;-57
2022/10/24 08:51:07;;;;;;;19.52;3.45;;;;;;;14.41;100.00;97047.69;5078168;28;20139;-59
2022/10/24 08:53:33;;;;;;;10.10;2.42;;;;;;;14.43;100.00;97049.03;5073980;28;20040;-58
2022/10/24 08:56:00;;;;;;;8.20;1.90;;;;;;;14.49;100.00;97057.94;5086483;28;20040;-58
2022/10/24 08:58:33;;;;;;;8.15;1.90;;;;;;;14.47;100.00;97062.06;5086744;28;20418;-59
2022/10/24 09:01:03;;;;;;;6.57;2.03;;;;;;;14.50;100.00;97056.03;5077684;28;20053;-58
2022/10/24 09:03:49;;;;;;;7.95;1.80;;;;;;;14.51;100.00;97071.28;5086886;28;20040;-59
2022/10/24 09:06:23;;;;;;;;;;;;;;;14.50;100.00;97077.84;5086635;28;20048;-59
2022/10/24 09:09:11;;;;;;;7.28;2.08;;;;;;;14.50;100.00;97081.38;5083148;28;19934;-59
2022/10/24 09:11:54;;;;;;;6.57;1.95;;;;;;;14.48;100.00;97085.50;5075042;28;20128;-59
2022/10/24 09:14:25;;;;;;;7.70;1.95;;;;;;;14.46;100.00;97093.13;5087074;28;20048;-60
2022/10/24 09:17:20;;;;;;;10.88;3.05;;;;;;;14.42;100.00;97096.41;5085797;28;20071;-60
2022/10/24 09:19:59;;;;;;;8.90;2.25;;;;;;;14.40;100.00;97108.69;5083364;28;20075;-59
2022/10/24 09:22:32;;;;;;;7.85;2.28;;;;;;;14.48;100.00;97107.28;5086121;28;20504;-59
2022/10/24 09:25:06;;;;;;;11.35;1.85;;;;;;;14.48;100.00;97101.84;5086363;28;20079;-59
2022/10/24 09:27:36;;;;;;;5.75;2.03;;;;;;;14.49;100.00;97098.00;5074155;28;20052;-58
2022/10/24 09:30:05;;;;;;;9.00;2.17;;;;;;;14.43;100.00;97086.34;5084447;28;20051;-60
2022/10/24 09:32:34;;;;;;;5.30;1.80;;;;;;;14.43;100.00;97097.22;5072536;28;20143;-58
2022/10/24 09:35:06;;;;;;;6.90;2.03;;;;;;;14.47;99.84;97102.91;5085670;28;20047;-59
2022/10/24 09:37:40;;;;;;;6.13;1.85;;;;;;;14.45;99.51;97095.06;5085975;28;20065;-59
2022/10/24 09:40:20;;;;;;;4.28;1.38;;;;;;;14.46;100.00;97101.28;5085097;28;20054;-60
2022/10/24 09:42:51;;;;;;;5.65;1.80;;;;;;;14.48;99.60;97099.13;5085614;28;20135;-59
2022/10/24 09:45:39;;;;;;;6.35;1.83;;;;;;;14.49;99.55;97101.53;5072944;28;20410;-59
2022/10/24 09:48:27;;;;;;;7.72;1.60;;;;;;;14.51;99.78;97099.34;5085425;28;20533;-59
2022/10/24 09:50:56;;;;;;;5.80;1.55;;;;;;;14.53;98.84;97093.63;5079562;28;20395;-59
2022/10/24 09:53:33;;;;;;;5.47;1.52;;;;;;;14.59;98.38;97092.47;5072411;28;20367;-61
2022/10/24 09:56:13;;;;;;;7.07;2.30;;;;;;;14.56;98.09;97107.47;5085496;28;20115;-58
2022/10/24 09:58:41;;;;;;;5.53;1.40;;;;;;;14.56;98.63;97106.69;5080202;28;20499;-58
2022/10/24 10:01:14;;;;;;;7.78;1.63;;;;;;;14.57;98.67;97103.66;5082118;28;20541;-59
2022/10/24 10:03:41;;;;;;;6.13;1.67;;;;;;;14.59;98.33;97110.75;5086117;28;20234;-59
2022/10/24 10:06:17;;;;;;;6.30;1.23;;;;;;;14.52;99.63;97108.34;5079022;28;20039;-59
2022/10/24 10:08:53;;;;;;;5.60;1.70;;;;;;;14.52;99.12;97119.25;5085481;28;20076;-59
2022/10/24 10:11:25;;;;;;;4.95;1.88;;;;;;;14.52;99.35;97105.63;5072203;28;20108;-58
2022/10/24 10:13:54;;;;;;;8.95;1.90;;;;;;;14.54;99.14;97108.84;5085382;28;20048;-58
2022/10/24 10:16:29;;;;;;;10.85;2.22;;;;;;;14.54;99.30;97106.97;5084929;28;20459;-59
2022/10/24 10:19:16;;;;;;;9.45;1.73;;;;;;;14.57;98.86;97114.53;5084883;28;20074;-58
2022/10/24 10:21:55;;;;;;;8.25;1.63;;;;;;;14.59;99.32;97106.09;5084148;28;20507;-59
2022/10/24 10:24:34;;;;;;;4.40;1.73;;;;;;;14.59;99.29;97105.28;5074211;28;20549;-59
2022/10/24 10:27:01;;;;;;;7.90;1.98;;;;;;;14.66;98.96;97111.22;5084836;28;20421;-59
2022/10/24 10:29:28;;;;;;;6.47;1.38;;;;;;;14.68;98.85;97112.53;5083644;28;20126;-59
2022/10/24 10:32:06;;;;;;;7.10;2.58;;;;;;;14.74;98.27;97112.53;5080938;28;20132;-59
2022/10/24 10:34:37;;;;;;;9.43;1.80;;;;;;;14.66;98.74;97100.31;5084692;28;20414;-59
2022/10/24 10:37:24;;;;;;;4.55;1.42;;;;;;;14.69;99.10;97108.75;5084862;28;20131;-58
2022/10/24 10:40:06;;;;;;;6.88;1.85;;;;;;;14.67;98.93;97099.22;5084423;28;20150;-59
2022/10/24 10:43:05;;;;;;;10.13;1.90;;;;;;;14.66;98.95;97112.03;5084695;28;20584;-59
2022/10/24 10:45:44;;;;;;;6.28;1.48;;;;;;;14.66;98.85;97114.75;5073126;28;20481;-59
2022/10/24 10:48:36;;;;;;;8.63;1.58;;;;;;;14.66;99.19;97114.75;5085091;28;20586;-59
2022/10/24 10:51:14;;;;;;;8.52;1.60;;;;;;;14.70;98.56;97132.16;5077816;28;20334;-59
2022/10/24 10:53:48;;;;;;;6.47;1.70;;;;;;;14.70;98.89;97128.63;5084640;28;20511;-59
2022/10/24 10:56:30;;;;;;;4.78;1.42;;;;;;;14.73;98.24;97135.41;5084554;28;20111;-58
2022/10/24 10:59:08;;;;;;;7.68;2.20;;;;;;;14.73;98.38;97140.84;5084276;28;20051;-59
2022/10/24 11:01:47;;;;;;;6.85;1.60;;;;;;;14.72;98.79;97148.22;5073434;28;20131;-59
2022/10/24 11:04:51;;;;;;;6.30;1.98;;;;;;;14.73;98.91;97143.56;5084487;28;20048;-59
2022/10/24 11:07:47;;;;;;;7.15;1.98;;;;;;;14.78;98.24;97143.59;5084080;28;20083;-59
2022/10/24 11:10:22;;;;;;;4.53;1.50;;;;;;;14.79;97.84;97140.59;5082938;28;20071;-58
2022/10/24 11:12:48;;;;;;;7.22;2.03;;;;;;;14.83;97.89;97147.06;5083090;28;20044;-59
2022/10/24 11:15:20;;;;;;;4.10;1.38;;;;;;;14.92;96.20;97138.28;5084146;28;20432;-58
2022/10/24 11:18:06;;;;;;;6.72;1.70;;;;;;;14.95;97.10;97152.16;5084261;28;20047;-59
2022/10/24 11:20:32;;;;;;;6.68;1.70;;;;;;;14.94;96.42;97134.19;5083396;28;20119;-59
2022/10/24 11:23:17;;;;;;;5.32;1.35;;;;;;;15.00;95.25;97136.88;5080866;28;20043;-59
2022/10/24 11:25:47;;;;;;;5.65;1.40;;;;;;;15.04;95.38;97141.44;5082998;28;20064;-59
2022/10/24 11:28:25;;;;;;;12.68;2.25;;;;;;;15.07;95.58;97140.03;5083825;28;20473;-58
2022/10/24 11:30:59;;;;;;;13.98;1.90;;;;;;;15.00;95.49;97145.84;5083653;28;20093;-58
2022/10/24 11:33:31;;;;;;;7.32;1.35;;;;;;;15.05;95.43;97134.09;5083422;28;20150;-59
2022/10/24 11:36:11;;;;;;;7.07;1.25;;;;;;;15.08;94.88;97136.25;5082685;28;20111;-59
2022/10/24 11:38:50;;;;;;;6.28;1.33;;;;;;;15.10;94.50;97122.31;5083689;28;20059;-58
2022/10/24 11:41:26;;;;;;;5.03;1.20;;;;;;;15.09;94.60;97124.22;5075485;28;20079;-59
2022/10/24 11:43:58;;;;;;;5.05;1.42;;;;;;;15.11;94.61;97122.00;5083928;28;20046;-58
2022/10/24 11:46:39;;;;;;;15.90;2.72;;;;;;;15.06;94.68;97120.16;5080365;28;20101;-59
2022/10/24 11:49:20;;;;;;;5.70;1.30;;;;;;;15.05;94.34;97120.44;5070910;28;20037;-58